createdAt,value
2023-04-08T00:02:26.725Z,6.75
2023-04-08T00:05:16.357Z,7.70
2023-04-08T00:08:05.783Z,7.78
2023-04-08T00:10:55.239Z,8.00
2023-04-08T00:13:44.541Z,7.78
2023-04-08T00:16:35.175Z,8.05
2023-04-08T00:19:25.336Z,7.70
2023-04-08T00:22:15.137Z,8.00
2023-04-08T00:25:06.809Z,8.00
2023-04-08T00:27:56.143Z,8.35
2023-04-08T00:30:45.859Z,8.63
2023-04-08T00:33:36.725Z,7.72
2023-04-08T00:36:27.778Z,8.32
2023-04-08T00:39:17.094Z,8.75
2023-04-08T00:42:06.297Z,8.77
2023-04-08T00:44:55.564Z,8.93
2023-04-08T00:47:44.972Z,9.32
2023-04-08T00:50:35.998Z,8.77
2023-04-08T00:53:25.808Z,9.70
2023-04-08T00:56:15.152Z,9.35
2023-04-08T00:59:06.156Z,9.25
2023-04-08T01:02:07.110Z,9.73
2023-04-08T01:05:03.634Z,10.25
2023-04-08T01:07:54.797Z,10.98
2023-04-08T01:10:46.045Z,9.65
2023-04-08T01:13:41.189Z,9.18
2023-04-08T01:16:31.250Z,9.85
2023-04-08T01:19:30.598Z,9.00
2023-04-08T01:22:29.855Z,9.00
2023-04-08T01:25:23.552Z,9.68
2023-04-08T01:28:19.285Z,9.48
2023-04-08T01:31:09.451Z,9.75
2023-04-08T01:34:01.359Z,9.30
2023-04-08T01:36:52.205Z,9.93
2023-04-08T01:39:42.899Z,9.55
2023-04-08T01:42:35.291Z,9.73
2023-04-08T01:45:26.805Z,9.73
2023-04-08T01:48:17.089Z,7.93
2023-04-08T01:51:08.065Z,8.27
2023-04-08T01:53:59.184Z,9.02
2023-04-08T01:56:48.922Z,8.27
2023-04-08T01:59:41.975Z,8.68
2023-04-08T02:05:23.191Z,9.35
2023-04-08T02:08:13.451Z,10.05
2023-04-08T02:11:02.967Z,8.95
2023-04-08T02:13:53.281Z,9.68
2023-04-08T02:16:51.568Z,9.82
2023-04-08T02:19:49.312Z,9.07
2023-04-08T02:22:45.356Z,9.60
2023-04-08T02:25:39.066Z,9.70
2023-04-08T02:28:30.415Z,9.55
2023-04-08T02:31:21.455Z,8.98
2023-04-08T02:34:12.484Z,9.85
2023-04-08T02:37:04.379Z,9.88
2023-04-08T02:39:54.567Z,10.15
2023-04-08T02:42:43.908Z,10.98
2023-04-08T02:45:36.441Z,10.00
2023-04-08T02:48:25.641Z,9.63
2023-04-08T02:51:14.939Z,10.43
2023-04-08T02:54:05.653Z,11.85
2023-04-08T02:56:55.016Z,10.15
2023-04-08T02:59:44.208Z,9.07
2023-04-08T03:02:33.580Z,8.57
2023-04-08T03:05:23.122Z,9.07
2023-04-08T03:08:12.279Z,8.02
2023-04-08T03:11:02.886Z,8.40
2023-04-08T03:13:52.061Z,9.27
2023-04-08T03:16:41.341Z,8.88
2023-04-08T03:19:30.597Z,9.18
2023-04-08T03:22:20.534Z,9.18
2023-04-08T03:25:11.912Z,8.40
2023-04-08T03:28:03.384Z,8.50
2023-04-08T03:30:52.738Z,7.97
2023-04-08T03:33:41.991Z,8.43
2023-04-08T03:36:31.344Z,8.45
2023-04-08T03:39:21.430Z,7.80
2023-04-08T03:42:10.689Z,7.55
2023-04-08T03:45:01.277Z,7.75
2023-04-08T03:47:50.528Z,8.00
2023-04-08T03:50:39.849Z,7.40
2023-04-08T03:53:29.511Z,7.57
2023-04-08T03:56:21.117Z,7.60
2023-04-08T03:59:13.117Z,7.93
2023-04-08T04:02:06.189Z,7.60
2023-04-08T04:07:44.524Z,6.78
2023-04-08T04:10:33.705Z,6.60
2023-04-08T04:13:22.963Z,6.57
2023-04-08T04:16:12.286Z,7.18
2023-04-08T04:19:05.748Z,6.70
2023-04-08T04:21:54.980Z,7.18
2023-04-08T04:24:50.873Z,6.85
2023-04-08T04:27:40.448Z,6.80
2023-04-08T04:30:33.124Z,6.95
2023-04-08T04:33:24.304Z,6.45
2023-04-08T04:36:14.916Z,7.10
2023-04-08T04:39:04.294Z,7.20
2023-04-08T04:41:53.464Z,7.63
2023-04-08T04:44:42.630Z,7.20
2023-04-08T04:47:32.841Z,7.22
2023-04-08T04:50:22.257Z,6.90
2023-04-08T04:53:12.779Z,7.53
2023-04-08T04:56:02.548Z,6.95
2023-04-08T04:58:51.984Z,6.82
2023-04-08T05:01:41.732Z,7.10
2023-04-08T05:04:31.027Z,6.88
2023-04-08T05:07:20.329Z,6.88
2023-04-08T05:10:12.544Z,6.80
2023-04-08T05:13:01.974Z,6.57
2023-04-08T05:15:51.143Z,7.20
2023-04-08T05:18:40.450Z,6.60
2023-04-08T05:21:29.686Z,6.45
2023-04-08T05:24:18.973Z,6.88
2023-04-08T05:27:09.632Z,6.38
2023-04-08T05:29:58.981Z,6.47
2023-04-08T05:32:48.211Z,6.90
2023-04-08T05:35:37.682Z,6.28
2023-04-08T05:38:28.408Z,6.68
2023-04-08T05:41:18.484Z,6.63
2023-04-08T05:44:09.126Z,5.88
2023-04-08T05:46:58.510Z,6.30
2023-04-08T05:49:48.889Z,6.00
2023-04-08T05:52:38.916Z,6.25
2023-04-08T05:55:28.579Z,5.65
2023-04-08T05:58:17.731Z,6.13
2023-04-08T06:01:08.398Z,6.07
2023-04-08T06:03:57.891Z,5.97
2023-04-08T06:06:47.247Z,5.95
2023-04-08T06:09:38.239Z,6.72
2023-04-08T06:12:27.430Z,5.70
2023-04-08T06:15:16.743Z,5.68
2023-04-08T06:18:07.363Z,5.88
2023-04-08T06:20:56.630Z,5.57
2023-04-08T06:23:46.096Z,5.50
2023-04-08T06:26:35.272Z,5.97
2023-04-08T06:29:24.817Z,5.45
2023-04-08T06:32:14.383Z,6.00
2023-04-08T06:35:05.266Z,5.70
2023-04-08T06:37:54.455Z,5.85
2023-04-08T06:40:43.650Z,5.70
2023-04-08T06:43:32.937Z,5.82
2023-04-08T06:46:22.359Z,5.85
2023-04-08T06:49:11.575Z,6.22
2023-04-08T06:52:02.201Z,5.65
2023-04-08T06:54:51.480Z,5.93
2023-04-08T06:57:43.675Z,6.55
2023-04-08T07:00:32.827Z,5.32
2023-04-08T07:03:22.490Z,5.57
2023-04-08T07:06:11.903Z,5.78
2023-04-08T07:09:02.531Z,6.13
2023-04-08T07:11:51.738Z,6.35
2023-04-08T07:14:41.169Z,5.57
2023-04-08T07:17:30.724Z,5.28
2023-04-08T07:20:20.057Z,5.45
2023-04-08T07:23:09.221Z,4.90
2023-04-08T07:26:04.681Z,4.60
2023-04-08T07:28:53.802Z,4.90
2023-04-08T07:31:44.760Z,4.95
2023-04-08T07:34:37.148Z,4.63
2023-04-08T07:37:26.487Z,4.97
2023-04-08T07:40:16.119Z,4.28
2023-04-08T07:43:06.906Z,5.82
2023-04-08T07:46:02.833Z,4.70
2023-04-08T07:48:53.206Z,4.55
2023-04-08T07:51:42.517Z,3.55
2023-04-08T07:54:34.345Z,3.90
2023-04-08T07:57:23.514Z,3.70
2023-04-08T08:00:21.013Z,3.45
2023-04-08T08:03:10.605Z,3.78
2023-04-08T08:05:59.932Z,3.90
2023-04-08T08:08:49.089Z,3.40
2023-04-08T08:11:41.461Z,3.38
2023-04-08T08:14:30.657Z,3.15
2023-04-08T08:17:21.311Z,2.80
2023-04-08T08:20:11.653Z,2.95
2023-04-08T08:23:01.029Z,3.17
2023-04-08T08:25:50.312Z,3.40
2023-04-08T08:28:40.434Z,2.60
2023-04-08T08:31:30.677Z,2.67
2023-04-08T08:34:31.587Z,2.83
2023-04-08T08:37:22.065Z,2.70
2023-04-08T08:40:12.873Z,2.90
2023-04-08T08:43:02.503Z,2.75
2023-04-08T08:45:51.821Z,2.88
2023-04-08T08:48:41.463Z,3.00
2023-04-08T08:51:32.980Z,3.45
2023-04-08T08:54:22.332Z,2.72
2023-04-08T08:57:20.019Z,3.20
2023-04-08T09:00:11.017Z,3.03
2023-04-08T09:03:17.925Z,3.08
2023-04-08T09:06:07.418Z,3.20
2023-04-08T09:08:58.093Z,3.00
2023-04-08T09:11:48.743Z,2.75
2023-04-08T09:14:38.387Z,2.15
2023-04-08T09:17:35.357Z,2.65
2023-04-08T09:20:25.812Z,2.45
2023-04-08T09:23:14.991Z,2.45
2023-04-08T09:26:10.554Z,2.53
2023-04-08T09:29:11.090Z,2.58
2023-04-08T09:32:08.122Z,3.17
2023-04-08T09:34:57.473Z,3.15
2023-04-08T09:37:46.794Z,2.85
2023-04-08T09:40:37.772Z,2.50
2023-04-08T09:43:28.561Z,2.38
2023-04-08T09:46:19.698Z,2.40
2023-04-08T09:49:13.929Z,4.25
2023-04-08T09:52:09.769Z,2.10
2023-04-08T09:55:04.159Z,2.50
2023-04-08T09:57:59.011Z,2.63
2023-04-08T10:00:53.524Z,2.60
2023-04-08T10:03:51.489Z,6.30
2023-04-08T10:06:42.844Z,2.60
2023-04-08T10:09:32.970Z,2.70
2023-04-08T10:12:22.451Z,3.03
2023-04-08T10:15:29.430Z,3.20
2023-04-08T10:18:35.528Z,3.05
2023-04-08T10:21:36.225Z,7.53
2023-04-08T10:24:26.079Z,2.80
2023-04-08T10:27:42.192Z,3.08
2023-04-08T10:30:44.941Z,2.67
2023-04-08T10:33:37.823Z,4.63
2023-04-08T10:36:29.436Z,3.78
2023-04-08T10:39:19.283Z,3.28
2023-04-08T10:42:10.708Z,3.30
2023-04-08T10:45:03.494Z,6.13
2023-04-08T10:47:52.846Z,3.80
2023-04-08T10:50:43.591Z,4.93
2023-04-08T10:53:35.830Z,5.60
2023-04-08T10:56:26.029Z,7.68
2023-04-08T10:59:17.798Z,7.15
2023-04-08T11:02:07.241Z,7.00
2023-04-08T11:04:56.463Z,8.57
2023-04-08T11:07:47.066Z,7.57
2023-04-08T11:10:39.898Z,7.13
2023-04-08T11:16:18.814Z,6.75
2023-04-08T11:19:09.035Z,7.93
2023-04-08T11:21:58.333Z,8.48
2023-04-08T11:24:49.240Z,9.57
2023-04-08T11:27:39.688Z,9.90
2023-04-08T11:30:29.949Z,12.02
2023-04-08T11:33:19.155Z,10.63
2023-04-08T11:36:09.730Z,10.50
2023-04-08T11:38:59.056Z,12.88
2023-04-08T11:41:50.178Z,12.55
2023-04-08T11:44:39.520Z,10.75
2023-04-08T11:47:33.594Z,10.85
2023-04-08T11:50:30.075Z,14.00
2023-04-08T11:53:21.010Z,9.82
2023-04-08T11:56:21.418Z,11.65
2023-04-08T11:59:12.107Z,10.63
2023-04-08T12:02:02.251Z,10.10
2023-04-08T12:04:52.472Z,11.25
2023-04-08T12:07:41.905Z,10.95
2023-04-08T12:10:31.645Z,14.73
2023-04-08T12:13:21.043Z,11.93
2023-04-08T12:16:12.569Z,10.15
2023-04-08T12:19:02.065Z,13.75
2023-04-08T12:21:51.355Z,15.05
2023-04-08T12:24:40.482Z,11.07
2023-04-08T12:27:29.691Z,13.77
2023-04-08T12:30:19.328Z,12.85
2023-04-08T12:33:09.934Z,13.32
2023-04-08T12:35:59.616Z,12.25
2023-04-08T12:38:49.416Z,10.80
2023-04-08T12:41:38.818Z,13.40
2023-04-08T12:44:28.395Z,22.25
2023-04-08T12:47:18.454Z,12.68
2023-04-08T12:50:10.747Z,9.13
2023-04-08T12:53:00.119Z,9.32
2023-04-08T12:55:50.194Z,9.02
2023-04-08T12:58:39.607Z,13.38
2023-04-08T13:01:28.970Z,8.27
2023-04-08T13:04:19.938Z,7.78
2023-04-08T13:07:10.557Z,9.25
2023-04-08T13:09:59.748Z,5.97
2023-04-08T13:12:49.051Z,18.25
2023-04-08T13:15:38.544Z,9.73
2023-04-08T13:18:27.814Z,6.65
2023-04-08T13:21:17.136Z,6.18
2023-04-08T13:24:08.238Z,6.15
2023-04-08T13:26:57.687Z,8.45
2023-04-08T13:29:46.960Z,7.40
2023-04-08T13:32:36.660Z,8.27
2023-04-08T13:35:26.968Z,6.60
2023-04-08T13:38:16.285Z,6.72
2023-04-08T13:41:07.504Z,6.70
2023-04-08T13:43:56.890Z,5.93
2023-04-08T13:46:46.234Z,5.72
2023-04-08T13:49:35.478Z,5.53
2023-04-08T13:52:24.690Z,7.30
2023-04-08T13:55:13.953Z,9.57
2023-04-08T13:58:11.295Z,7.18
2023-04-08T14:01:07.065Z,6.88
2023-04-08T14:03:56.482Z,6.82
2023-04-08T14:06:45.757Z,7.60
2023-04-08T14:09:35.899Z,6.80
2023-04-08T14:12:25.096Z,7.82
2023-04-08T14:15:15.773Z,10.43
2023-04-08T14:18:05.093Z,7.10
2023-04-08T14:20:54.329Z,7.28
2023-04-08T14:23:43.503Z,10.00
2023-04-08T14:26:35.874Z,13.25
2023-04-08T14:29:26.621Z,9.18
2023-04-08T14:32:18.278Z,6.75
2023-04-08T14:35:08.886Z,7.25
2023-04-08T14:37:58.274Z,8.32
2023-04-08T14:40:47.530Z,7.65
2023-04-08T14:43:36.818Z,9.90
2023-04-08T14:46:29.165Z,6.95
2023-04-08T14:49:20.079Z,7.65
2023-04-08T14:52:09.334Z,7.85
2023-04-08T14:54:58.547Z,7.53
2023-04-08T14:57:47.917Z,8.10
2023-04-08T15:00:37.842Z,10.88
2023-04-08T15:03:27.626Z,7.60
2023-04-08T15:06:21.927Z,7.60
2023-04-08T15:09:11.338Z,7.60
2023-04-08T15:12:01.411Z,9.02
2023-04-08T15:14:51.016Z,7.88
2023-04-08T15:17:40.288Z,7.75
2023-04-08T15:20:29.600Z,7.60
2023-04-08T15:23:20.218Z,8.32
2023-04-08T15:26:10.005Z,8.20
2023-04-08T15:28:59.920Z,8.25
2023-04-08T15:31:49.145Z,8.35
2023-04-08T15:34:38.372Z,7.75
2023-04-08T15:37:27.882Z,9.38
2023-04-08T15:40:19.103Z,8.10
2023-04-08T15:43:10.246Z,8.85
2023-04-08T15:45:59.498Z,8.10
2023-04-08T15:48:48.822Z,7.68
2023-04-08T15:51:38.273Z,8.32
2023-04-08T15:54:29.456Z,8.52
2023-04-08T15:57:26.542Z,8.55
2023-04-08T16:00:16.840Z,8.65
2023-04-08T16:03:08.964Z,8.57
2023-04-08T16:05:58.536Z,9.85
2023-04-08T16:08:48.745Z,7.70
2023-04-08T16:11:38.521Z,9.27
2023-04-08T16:14:29.288Z,8.90
2023-04-08T16:17:18.657Z,9.52
2023-04-08T16:20:09.181Z,8.30
2023-04-08T16:22:58.397Z,12.60
2023-04-08T16:25:47.858Z,10.40
2023-04-08T16:28:39.592Z,8.30
2023-04-08T16:34:20.324Z,8.70
2023-04-08T16:37:09.624Z,11.60
2023-04-08T16:39:59.066Z,8.25
2023-04-08T16:42:48.458Z,7.43
2023-04-08T16:45:39.217Z,8.05
2023-04-08T16:48:29.871Z,7.70
2023-04-08T16:51:19.142Z,6.97
2023-04-08T16:54:08.616Z,7.47
2023-04-08T16:56:58.304Z,7.47
2023-04-08T16:59:47.658Z,7.13
2023-04-08T17:02:37.199Z,8.93
2023-04-08T17:05:28.473Z,6.85
2023-04-08T17:08:18.857Z,6.90
2023-04-08T17:11:10.458Z,6.53
2023-04-08T17:14:00.531Z,12.85
2023-04-08T17:16:57.111Z,7.53
2023-04-08T17:19:52.054Z,8.93
2023-04-08T17:22:43.828Z,7.80
2023-04-08T17:25:33.084Z,7.60
2023-04-08T17:28:24.718Z,7.63
2023-04-08T17:31:13.931Z,7.63
2023-04-08T17:34:06.060Z,7.57
2023-04-08T17:36:55.518Z,7.23
2023-04-08T17:39:48.946Z,7.03
2023-04-08T17:42:40.493Z,7.63
2023-04-08T17:45:29.660Z,7.00
2023-04-08T17:48:21.205Z,7.60
2023-04-08T17:51:10.424Z,9.07
2023-04-08T17:53:59.729Z,7.18
2023-04-08T17:56:50.574Z,7.90
2023-04-08T17:59:39.763Z,9.10
2023-04-08T18:02:29.221Z,6.95
2023-04-08T18:05:18.606Z,6.80
2023-04-08T18:08:07.943Z,7.07
2023-04-08T18:10:57.154Z,7.05
2023-04-08T18:13:49.404Z,6.47
2023-04-08T18:16:38.808Z,6.05
2023-04-08T18:19:28.103Z,6.43
2023-04-08T18:22:17.657Z,5.60
2023-04-08T18:25:07.771Z,6.93
2023-04-08T18:27:56.968Z,7.07
2023-04-08T18:30:51.601Z,6.20
2023-04-08T18:33:40.863Z,8.15
2023-04-08T18:36:30.053Z,8.43
2023-04-08T18:39:19.273Z,7.32
2023-04-08T18:42:08.498Z,8.32
2023-04-08T18:44:58.016Z,7.40
2023-04-08T18:47:48.644Z,7.30
2023-04-08T18:50:37.833Z,7.20
2023-04-08T18:53:27.158Z,6.22
2023-04-08T18:56:17.556Z,6.10
2023-04-08T18:59:07.412Z,6.80
2023-04-08T19:01:57.320Z,5.68
2023-04-08T19:04:48.063Z,6.38
2023-04-08T19:07:37.303Z,6.75
2023-04-08T19:10:26.553Z,6.55
2023-04-08T19:13:15.902Z,5.95
2023-04-08T19:16:05.443Z,6.22
2023-04-08T19:18:54.972Z,5.38
2023-04-08T19:21:45.581Z,4.93
2023-04-08T19:24:34.859Z,9.85
2023-04-08T19:27:24.056Z,5.20
2023-04-08T19:30:13.922Z,8.57
2023-04-08T19:33:03.126Z,8.93
2023-04-08T19:35:52.416Z,6.40
2023-04-08T19:38:43.003Z,5.53
2023-04-08T19:41:32.274Z,8.70
2023-04-08T19:44:21.515Z,13.98
2023-04-08T19:47:11.028Z,7.00
2023-04-08T19:50:00.444Z,6.57
2023-04-08T19:52:49.753Z,5.65
2023-04-08T19:55:40.435Z,7.82
2023-04-08T19:58:30.996Z,5.32
2023-04-08T20:01:20.329Z,4.63
2023-04-08T20:04:09.634Z,7.93
2023-04-08T20:07:01.296Z,8.27
2023-04-08T20:09:50.548Z,11.45
2023-04-08T20:12:42.022Z,6.22
2023-04-08T20:15:31.225Z,9.23
2023-04-08T20:18:20.400Z,5.57
2023-04-08T20:21:13.923Z,4.95
2023-04-08T20:24:03.297Z,7.72
2023-04-08T20:26:53.543Z,7.45
2023-04-08T20:29:44.162Z,5.20
2023-04-08T20:32:33.449Z,5.60
2023-04-08T20:35:22.993Z,6.03
2023-04-08T20:38:12.262Z,5.68
2023-04-08T20:41:01.540Z,5.05
2023-04-08T20:43:53.614Z,5.18
2023-04-08T20:46:46.352Z,5.72
2023-04-08T20:49:40.025Z,5.63
2023-04-08T20:52:29.461Z,6.30
2023-04-08T20:55:18.868Z,6.18
2023-04-08T20:58:08.151Z,5.10
2023-04-08T21:00:59.797Z,5.47
2023-04-08T21:03:50.897Z,5.40
2023-04-08T21:06:40.764Z,5.55
2023-04-08T21:09:29.934Z,4.93
2023-04-08T21:12:19.168Z,5.35
2023-04-08T21:15:09.835Z,5.18
2023-04-08T21:17:59.185Z,5.60
2023-04-08T21:20:50.161Z,5.47
2023-04-08T21:23:39.586Z,7.88
2023-04-08T21:26:28.818Z,8.93
2023-04-08T21:29:18.035Z,5.82
2023-04-08T21:32:07.659Z,5.28
2023-04-08T21:34:58.699Z,11.40
2023-04-08T21:37:49.413Z,5.70
2023-04-08T21:40:38.592Z,12.85
2023-04-08T21:43:28.634Z,5.05
2023-04-08T21:46:17.971Z,4.85
2023-04-08T21:49:07.197Z,4.65
2023-04-08T21:51:59.484Z,4.72
2023-04-08T21:54:53.570Z,5.07
2023-04-08T21:57:49.260Z,7.25
2023-04-08T22:00:39.009Z,5.50
2023-04-08T22:03:29.680Z,4.90
2023-04-08T22:06:28.975Z,5.28
2023-04-08T22:09:26.204Z,5.00
2023-04-08T22:12:18.668Z,4.22
2023-04-08T22:15:10.107Z,4.70
2023-04-08T22:18:01.934Z,4.00
2023-04-08T22:20:51.452Z,7.40
2023-04-08T22:23:40.983Z,4.25
2023-04-08T22:26:33.376Z,4.35
2023-04-08T22:29:24.622Z,3.88
2023-04-08T22:32:15.717Z,4.00
2023-04-08T22:35:05.875Z,4.10
2023-04-08T22:37:57.268Z,3.72
2023-04-08T22:40:46.660Z,3.63
2023-04-08T22:43:36.610Z,4.30
2023-04-08T22:46:27.594Z,3.50
2023-04-08T22:49:17.014Z,5.72
2023-04-08T22:52:06.306Z,4.10
2023-04-08T22:54:55.631Z,4.40
2023-04-08T22:57:46.557Z,3.80
2023-04-08T23:00:38.054Z,3.25
2023-04-08T23:03:38.094Z,4.90
2023-04-08T23:06:28.956Z,4.03
2023-04-08T23:09:18.236Z,6.20
2023-04-08T23:12:07.702Z,3.17
2023-04-08T23:14:59.370Z,3.25
2023-04-08T23:17:48.632Z,4.30
2023-04-08T23:20:39.448Z,2.95
2023-04-08T23:23:28.789Z,2.85
2023-04-08T23:26:21.371Z,3.15
2023-04-08T23:29:10.821Z,14.90
2023-04-08T23:32:00.143Z,2.60
2023-04-08T23:34:49.418Z,5.55
2023-04-08T23:37:39.985Z,2.80
2023-04-08T23:40:29.269Z,3.63
2023-04-08T23:43:18.441Z,6.22
2023-04-08T23:46:09.504Z,3.30
2023-04-08T23:48:58.764Z,3.22
2023-04-08T23:51:47.941Z,3.00
2023-04-08T23:54:38.470Z,4.03
2023-04-08T23:57:27.684Z,4.40
